sensor_id;sensor_type;location;lat;lon;timestamp;P1;durP1;ratioP1;P2;durP2;ratioP2
32292;SDS011;43233;48.608;8.838;2023-05-29T00:02:04;8.13;;;4.77;;
32292;SDS011;43233;48.608;8.838;2023-05-29T00:04:29;12.10;;;4.83;;
32292;SDS011;43233;48.608;8.838;2023-05-29T00:06:55;8.13;;;4.43;;
32292;SDS011;43233;48.608;8.838;2023-05-29T00:09:21;12.10;;;4.53;;
32292;SDS011;43233;48.608;8.838;2023-05-29T00:11:46;7.27;;;4.13;;
32292;SDS011;43233;48.608;8.838;2023-05-29T00:14:16;12.00;;;4.00;;
32292;SDS011;43233;48.608;8.838;2023-05-29T00:16:44;6.90;;;4.70;;
32292;SDS011;43233;48.608;8.838;2023-05-29T00:19:11;8.57;;;4.30;;
32292;SDS011;43233;48.608;8.838;2023-05-29T00:21:38;8.83;;;4.33;;
32292;SDS011;43233;48.608;8.838;2023-05-29T00:24:05;7.63;;;4.63;;
32292;SDS011;43233;48.608;8.838;2023-05-29T00:26:31;6.70;;;5.03;;
32292;SDS011;43233;48.608;8.838;2023-05-29T00:28:56;6.27;;;4.50;;
32292;SDS011;43233;48.608;8.838;2023-05-29T00:31:22;6.43;;;4.83;;
32292;SDS011;43233;48.608;8.838;2023-05-29T00:33:49;10.87;;;4.80;;
32292;SDS011;43233;48.608;8.838;2023-05-29T00:36:15;8.23;;;5.20;;
32292;SDS011;43233;48.608;8.838;2023-05-29T00:38:41;6.50;;;4.17;;
32292;SDS011;43233;48.608;8.838;2023-05-29T00:41:06;8.37;;;4.80;;
32292;SDS011;43233;48.608;8.838;2023-05-29T00:43:37;4.43;;;3.90;;
32292;SDS011;43233;48.608;8.838;2023-05-29T00:46:03;5.43;;;3.90;;
32292;SDS011;43233;48.608;8.838;2023-05-29T00:48:29;6.00;;;4.97;;
32292;SDS011;43233;48.608;8.838;2023-05-29T00:50:55;9.47;;;5.23;;
32292;SDS011;43233;48.608;8.838;2023-05-29T00:53:21;7.53;;;3.93;;
32292;SDS011;43233;48.608;8.838;2023-05-29T00:55:47;7.77;;;4.50;;
32292;SDS011;43233;48.608;8.838;2023-05-29T00:58:13;7.80;;;4.40;;
32292;SDS011;43233;48.608;8.838;2023-05-29T01:00:39;12.63;;;5.67;;
32292;SDS011;43233;48.608;8.838;2023-05-29T01:03:05;7.00;;;4.50;;
32292;SDS011;43233;48.608;8.838;2023-05-29T01:05:33;6.77;;;4.57;;
32292;SDS011;43233;48.608;8.838;2023-05-29T01:08:00;8.53;;;5.40;;
32292;SDS011;43233;48.608;8.838;2023-05-29T01:10:27;8.10;;;5.07;;
32292;SDS011;43233;48.608;8.838;2023-05-29T01:13:03;11.50;;;5.20;;
32292;SDS011;43233;48.608;8.838;2023-05-29T01:15:45;11.80;;;4.97;;
32292;SDS011;43233;48.608;8.838;2023-05-29T01:21:27;9.00;;;4.90;;
32292;SDS011;43233;48.608;8.838;2023-05-29T01:27:05;6.87;;;4.40;;
32292;SDS011;43233;48.608;8.838;2023-05-29T01:29:35;7.00;;;4.67;;
32292;SDS011;43233;48.608;8.838;2023-05-29T01:32:04;13.10;;;5.50;;
32292;SDS011;43233;48.608;8.838;2023-05-29T01:34:30;7.00;;;4.50;;
32292;SDS011;43233;48.608;8.838;2023-05-29T01:36:56;6.10;;;4.30;;
32292;SDS011;43233;48.608;8.838;2023-05-29T01:39:22;8.03;;;4.77;;
32292;SDS011;43233;48.608;8.838;2023-05-29T01:41:48;7.40;;;4.87;;
32292;SDS011;43233;48.608;8.838;2023-05-29T01:44:15;11.80;;;5.60;;
32292;SDS011;43233;48.608;8.838;2023-05-29T01:46:43;7.30;;;4.53;;
32292;SDS011;43233;48.608;8.838;2023-05-29T01:49:10;7.13;;;4.67;;
32292;SDS011;43233;48.608;8.838;2023-05-29T01:51:37;7.43;;;4.77;;
32292;SDS011;43233;48.608;8.838;2023-05-29T01:54:05;9.80;;;4.50;;
32292;SDS011;43233;48.608;8.838;2023-05-29T01:56:32;7.90;;;4.40;;
32292;SDS011;43233;48.608;8.838;2023-05-29T01:58:58;6.60;;;4.73;;
32292;SDS011;43233;48.608;8.838;2023-05-29T02:01:27;7.33;;;5.10;;
32292;SDS011;43233;48.608;8.838;2023-05-29T02:03:52;6.10;;;4.17;;
32292;SDS011;43233;48.608;8.838;2023-05-29T02:06:18;7.77;;;4.80;;
32292;SDS011;43233;48.608;8.838;2023-05-29T02:08:45;9.00;;;4.80;;
32292;SDS011;43233;48.608;8.838;2023-05-29T02:11:10;10.23;;;4.83;;
32292;SDS011;43233;48.608;8.838;2023-05-29T02:13:36;8.97;;;4.60;;
32292;SDS011;43233;48.608;8.838;2023-05-29T02:16:03;12.43;;;4.47;;
32292;SDS011;43233;48.608;8.838;2023-05-29T02:18:28;11.13;;;4.93;;
32292;SDS011;43233;48.608;8.838;2023-05-29T02:20:54;6.63;;;4.53;;
32292;SDS011;43233;48.608;8.838;2023-05-29T02:23:20;8.87;;;5.03;;
32292;SDS011;43233;48.608;8.838;2023-05-29T02:25:46;10.50;;;5.50;;
32292;SDS011;43233;48.608;8.838;2023-05-29T02:28:11;7.57;;;4.27;;
32292;SDS011;43233;48.608;8.838;2023-05-29T02:30:37;7.70;;;4.10;;
32292;SDS011;43233;48.608;8.838;2023-05-29T02:33:02;6.13;;;3.93;;
32292;SDS011;43233;48.608;8.838;2023-05-29T02:35:28;7.60;;;4.93;;
32292;SDS011;43233;48.608;8.838;2023-05-29T02:37:54;7.97;;;4.90;;
32292;SDS011;43233;48.608;8.838;2023-05-29T02:40:20;5.37;;;4.67;;
32292;SDS011;43233;48.608;8.838;2023-05-29T02:42:49;6.90;;;4.60;;
32292;SDS011;43233;48.608;8.838;2023-05-29T02:45:15;5.57;;;4.77;;
32292;SDS011;43233;48.608;8.838;2023-05-29T02:47:41;10.07;;;4.63;;
32292;SDS011;43233;48.608;8.838;2023-05-29T02:50:06;7.10;;;5.07;;
32292;SDS011;43233;48.608;8.838;2023-05-29T02:52:33;8.17;;;4.77;;
32292;SDS011;43233;48.608;8.838;2023-05-29T02:54:59;11.30;;;5.80;;
32292;SDS011;43233;48.608;8.838;2023-05-29T02:57:25;9.87;;;5.33;;
32292;SDS011;43233;48.608;8.838;2023-05-29T02:59:51;7.40;;;5.80;;
32292;SDS011;43233;48.608;8.838;2023-05-29T03:02:17;7.13;;;5.20;;
32292;SDS011;43233;48.608;8.838;2023-05-29T03:04:43;8.53;;;5.40;;
32292;SDS011;43233;48.608;8.838;2023-05-29T03:07:10;6.97;;;4.63;;
32292;SDS011;43233;48.608;8.838;2023-05-29T03:09:37;8.80;;;5.00;;
32292;SDS011;43233;48.608;8.838;2023-05-29T03:12:04;8.83;;;4.50;;
32292;SDS011;43233;48.608;8.838;2023-05-29T03:14:33;8.77;;;4.80;;
32292;SDS011;43233;48.608;8.838;2023-05-29T03:17:03;7.30;;;5.23;;
32292;SDS011;43233;48.608;8.838;2023-05-29T03:19:31;8.47;;;4.60;;
32292;SDS011;43233;48.608;8.838;2023-05-29T03:21:56;5.93;;;4.40;;
32292;SDS011;43233;48.608;8.838;2023-05-29T03:24:23;6.00;;;5.00;;
32292;SDS011;43233;48.608;8.838;2023-05-29T03:26:50;8.47;;;5.10;;
32292;SDS011;43233;48.608;8.838;2023-05-29T03:29:16;7.83;;;5.90;;
32292;SDS011;43233;48.608;8.838;2023-05-29T03:31:43;7.53;;;5.37;;
32292;SDS011;43233;48.608;8.838;2023-05-29T03:34:10;9.40;;;4.83;;
32292;SDS011;43233;48.608;8.838;2023-05-29T03:36:38;6.17;;;4.23;;
32292;SDS011;43233;48.608;8.838;2023-05-29T03:39:05;10.50;;;5.20;;
32292;SDS011;43233;48.608;8.838;2023-05-29T03:41:32;12.37;;;6.00;;
32292;SDS011;43233;48.608;8.838;2023-05-29T03:43:59;8.90;;;5.20;;
32292;SDS011;43233;48.608;8.838;2023-05-29T03:46:27;6.73;;;4.60;;
32292;SDS011;43233;48.608;8.838;2023-05-29T03:48:56;5.53;;;4.93;;
32292;SDS011;43233;48.608;8.838;2023-05-29T03:51:25;7.13;;;4.80;;
32292;SDS011;43233;48.608;8.838;2023-05-29T03:53:56;5.87;;;5.13;;
32292;SDS011;43233;48.608;8.838;2023-05-29T03:56:31;8.00;;;5.00;;
32292;SDS011;43233;48.608;8.838;2023-05-29T03:59:05;10.50;;;5.67;;
32292;SDS011;43233;48.608;8.838;2023-05-29T04:01:34;8.50;;;4.63;;
32292;SDS011;43233;48.608;8.838;2023-05-29T04:04:03;6.63;;;4.80;;
32292;SDS011;43233;48.608;8.838;2023-05-29T04:06:41;12.27;;;6.43;;
32292;SDS011;43233;48.608;8.838;2023-05-29T04:09:14;8.33;;;5.50;;
32292;SDS011;43233;48.608;8.838;2023-05-29T04:11:44;7.13;;;5.07;;
32292;SDS011;43233;48.608;8.838;2023-05-29T04:14:13;6.10;;;4.60;;
32292;SDS011;43233;48.608;8.838;2023-05-29T04:16:45;7.33;;;4.80;;
32292;SDS011;43233;48.608;8.838;2023-05-29T04:19:16;11.20;;;5.20;;
32292;SDS011;43233;48.608;8.838;2023-05-29T04:21:50;9.30;;;5.30;;
32292;SDS011;43233;48.608;8.838;2023-05-29T04:24:25;5.67;;;4.63;;
32292;SDS011;43233;48.608;8.838;2023-05-29T04:26:56;5.20;;;4.53;;
32292;SDS011;43233;48.608;8.838;2023-05-29T04:29:29;6.10;;;5.17;;
32292;SDS011;43233;48.608;8.838;2023-05-29T04:31:59;6.77;;;4.53;;
32292;SDS011;43233;48.608;8.838;2023-05-29T04:34:28;7.73;;;4.60;;
32292;SDS011;43233;48.608;8.838;2023-05-29T04:36:56;6.00;;;5.27;;
32292;SDS011;43233;48.608;8.838;2023-05-29T04:39:23;6.37;;;4.90;;
32292;SDS011;43233;48.608;8.838;2023-05-29T04:41:51;4.93;;;4.03;;
32292;SDS011;43233;48.608;8.838;2023-05-29T04:44:18;11.20;;;5.17;;
32292;SDS011;43233;48.608;8.838;2023-05-29T04:46:45;9.50;;;5.50;;
32292;SDS011;43233;48.608;8.838;2023-05-29T04:49:12;12.10;;;6.40;;
32292;SDS011;43233;48.608;8.838;2023-05-29T04:51:39;5.20;;;4.70;;
32292;SDS011;43233;48.608;8.838;2023-05-29T04:54:07;7.40;;;5.03;;
32292;SDS011;43233;48.608;8.838;2023-05-29T04:56:36;6.80;;;4.90;;
32292;SDS011;43233;48.608;8.838;2023-05-29T04:59:05;5.43;;;4.87;;
32292;SDS011;43233;48.608;8.838;2023-05-29T05:01:35;8.33;;;5.47;;
32292;SDS011;43233;48.608;8.838;2023-05-29T05:04:12;8.43;;;5.30;;
32292;SDS011;43233;48.608;8.838;2023-05-29T05:06:47;11.07;;;5.50;;
32292;SDS011;43233;48.608;8.838;2023-05-29T05:09:34;6.80;;;5.23;;
32292;SDS011;43233;48.608;8.838;2023-05-29T05:12:00;7.90;;;4.67;;
32292;SDS011;43233;48.608;8.838;2023-05-29T05:14:26;9.13;;;5.17;;
32292;SDS011;43233;48.608;8.838;2023-05-29T05:16:52;6.80;;;4.17;;
32292;SDS011;43233;48.608;8.838;2023-05-29T05:19:18;5.83;;;4.93;;
32292;SDS011;43233;48.608;8.838;2023-05-29T05:21:44;9.93;;;5.63;;
32292;SDS011;43233;48.608;8.838;2023-05-29T05:24:09;4.97;;;4.17;;
32292;SDS011;43233;48.608;8.838;2023-05-29T05:26:35;9.03;;;4.80;;
32292;SDS011;43233;48.608;8.838;2023-05-29T05:29:00;7.40;;;5.40;;
32292;SDS011;43233;48.608;8.838;2023-05-29T05:31:26;9.93;;;4.80;;
32292;SDS011;43233;48.608;8.838;2023-05-29T05:33:52;4.83;;;4.23;;
32292;SDS011;43233;48.608;8.838;2023-05-29T05:36:17;7.03;;;4.30;;
32292;SDS011;43233;48.608;8.838;2023-05-29T05:38:43;6.43;;;4.57;;
32292;SDS011;43233;48.608;8.838;2023-05-29T05:41:09;6.50;;;4.63;;
32292;SDS011;43233;48.608;8.838;2023-05-29T05:43:35;5.77;;;5.17;;
32292;SDS011;43233;48.608;8.838;2023-05-29T05:46:00;7.53;;;4.10;;
32292;SDS011;43233;48.608;8.838;2023-05-29T05:48:26;10.90;;;4.60;;
32292;SDS011;43233;48.608;8.838;2023-05-29T05:50:52;7.70;;;4.83;;
32292;SDS011;43233;48.608;8.838;2023-05-29T05:53:17;5.17;;;4.10;;
32292;SDS011;43233;48.608;8.838;2023-05-29T05:55:43;5.33;;;4.17;;
32292;SDS011;43233;48.608;8.838;2023-05-29T05:58:09;6.10;;;4.60;;
32292;SDS011;43233;48.608;8.838;2023-05-29T06:00:34;4.60;;;3.73;;
32292;SDS011;43233;48.608;8.838;2023-05-29T06:03:00;10.03;;;4.40;;
32292;SDS011;43233;48.608;8.838;2023-05-29T06:05:28;7.30;;;3.83;;
32292;SDS011;43233;48.608;8.838;2023-05-29T06:07:54;6.07;;;4.10;;
32292;SDS011;43233;48.608;8.838;2023-05-29T06:10:19;7.13;;;4.70;;
32292;SDS011;43233;48.608;8.838;2023-05-29T06:12:45;5.83;;;4.27;;
32292;SDS011;43233;48.608;8.838;2023-05-29T06:15:10;6.10;;;4.20;;
32292;SDS011;43233;48.608;8.838;2023-05-29T06:17:36;7.03;;;4.77;;
32292;SDS011;43233;48.608;8.838;2023-05-29T06:20:02;6.23;;;4.47;;
32292;SDS011;43233;48.608;8.838;2023-05-29T06:22:30;5.63;;;3.80;;
32292;SDS011;43233;48.608;8.838;2023-05-29T06:24:56;6.77;;;4.33;;
32292;SDS011;43233;48.608;8.838;2023-05-29T06:27:21;5.27;;;3.90;;
32292;SDS011;43233;48.608;8.838;2023-05-29T06:29:50;4.40;;;3.50;;
32292;SDS011;43233;48.608;8.838;2023-05-29T06:32:16;8.30;;;4.40;;
32292;SDS011;43233;48.608;8.838;2023-05-29T06:34:41;8.97;;;4.17;;
32292;SDS011;43233;48.608;8.838;2023-05-29T06:37:07;5.87;;;4.17;;
32292;SDS011;43233;48.608;8.838;2023-05-29T06:39:34;5.10;;;4.30;;
32292;SDS011;43233;48.608;8.838;2023-05-29T06:41:59;4.10;;;3.70;;
32292;SDS011;43233;48.608;8.838;2023-05-29T06:44:26;6.50;;;4.20;;
32292;SDS011;43233;48.608;8.838;2023-05-29T06:46:51;6.70;;;4.43;;
32292;SDS011;43233;48.608;8.838;2023-05-29T06:49:17;14.83;;;4.97;;
32292;SDS011;43233;48.608;8.838;2023-05-29T06:51:43;4.83;;;3.83;;
32292;SDS011;43233;48.608;8.838;2023-05-29T06:54:09;5.70;;;4.07;;
32292;SDS011;43233;48.608;8.838;2023-05-29T06:56:35;5.10;;;3.93;;
32292;SDS011;43233;48.608;8.838;2023-05-29T06:59:01;9.67;;;4.57;;
32292;SDS011;43233;48.608;8.838;2023-05-29T07:01:26;11.17;;;4.70;;
32292;SDS011;43233;48.608;8.838;2023-05-29T07:03:52;5.97;;;3.77;;
32292;SDS011;43233;48.608;8.838;2023-05-29T07:06:18;6.20;;;3.97;;
32292;SDS011;43233;48.608;8.838;2023-05-29T07:08:44;5.53;;;4.27;;
32292;SDS011;43233;48.608;8.838;2023-05-29T07:11:10;4.47;;;3.60;;
32292;SDS011;43233;48.608;8.838;2023-05-29T07:13:35;9.33;;;4.83;;
32292;SDS011;43233;48.608;8.838;2023-05-29T07:16:01;8.67;;;4.37;;
32292;SDS011;43233;48.608;8.838;2023-05-29T07:18:27;8.83;;;4.30;;
32292;SDS011;43233;48.608;8.838;2023-05-29T07:20:53;5.63;;;4.70;;
32292;SDS011;43233;48.608;8.838;2023-05-29T07:23:20;5.17;;;4.60;;
32292;SDS011;43233;48.608;8.838;2023-05-29T07:25:46;5.00;;;4.23;;
32292;SDS011;43233;48.608;8.838;2023-05-29T07:28:12;8.30;;;4.77;;
32292;SDS011;43233;48.608;8.838;2023-05-29T07:30:37;5.70;;;4.57;;
32292;SDS011;43233;48.608;8.838;2023-05-29T07:33:03;6.13;;;5.47;;
32292;SDS011;43233;48.608;8.838;2023-05-29T07:35:28;6.23;;;4.77;;
32292;SDS011;43233;48.608;8.838;2023-05-29T07:37:54;9.00;;;5.00;;
32292;SDS011;43233;48.608;8.838;2023-05-29T07:40:20;5.10;;;4.27;;
32292;SDS011;43233;48.608;8.838;2023-05-29T07:42:45;8.33;;;5.37;;
32292;SDS011;43233;48.608;8.838;2023-05-29T07:45:11;6.17;;;4.27;;
32292;SDS011;43233;48.608;8.838;2023-05-29T07:47:37;9.90;;;4.30;;
32292;SDS011;43233;48.608;8.838;2023-05-29T07:50:02;9.47;;;5.10;;
32292;SDS011;43233;48.608;8.838;2023-05-29T07:52:28;8.33;;;4.63;;
32292;SDS011;43233;48.608;8.838;2023-05-29T07:54:53;8.00;;;5.00;;
32292;SDS011;43233;48.608;8.838;2023-05-29T07:57:19;6.83;;;4.77;;
32292;SDS011;43233;48.608;8.838;2023-05-29T07:59:45;8.17;;;4.80;;
32292;SDS011;43233;48.608;8.838;2023-05-29T08:02:14;10.03;;;5.30;;
32292;SDS011;43233;48.608;8.838;2023-05-29T08:04:41;7.30;;;4.87;;
32292;SDS011;43233;48.608;8.838;2023-05-29T08:07:07;7.33;;;4.20;;
32292;SDS011;43233;48.608;8.838;2023-05-29T08:09:32;6.60;;;4.90;;
32292;SDS011;43233;48.608;8.838;2023-05-29T08:11:58;8.63;;;4.50;;
32292;SDS011;43233;48.608;8.838;2023-05-29T08:14:26;10.90;;;4.90;;
32292;SDS011;43233;48.608;8.838;2023-05-29T08:16:51;7.00;;;4.93;;
32292;SDS011;43233;48.608;8.838;2023-05-29T08:19:17;8.63;;;5.03;;
32292;SDS011;43233;48.608;8.838;2023-05-29T08:21:42;12.13;;;5.40;;
32292;SDS011;43233;48.608;8.838;2023-05-29T08:24:08;9.10;;;5.00;;
32292;SDS011;43233;48.608;8.838;2023-05-29T08:26:34;10.17;;;4.70;;
32292;SDS011;43233;48.608;8.838;2023-05-29T08:29:00;6.00;;;4.60;;
32292;SDS011;43233;48.608;8.838;2023-05-29T08:31:26;11.23;;;4.90;;
32292;SDS011;43233;48.608;8.838;2023-05-29T08:33:52;5.20;;;4.23;;
32292;SDS011;43233;48.608;8.838;2023-05-29T08:36:18;7.93;;;4.73;;
32292;SDS011;43233;48.608;8.838;2023-05-29T08:38:50;5.93;;;4.73;;
32292;SDS011;43233;48.608;8.838;2023-05-29T08:41:21;6.10;;;4.60;;
32292;SDS011;43233;48.608;8.838;2023-05-29T08:43:52;7.50;;;4.90;;
32292;SDS011;43233;48.608;8.838;2023-05-29T08:46:18;7.47;;;5.03;;
32292;SDS011;43233;48.608;8.838;2023-05-29T08:48:47;7.60;;;5.10;;
32292;SDS011;43233;48.608;8.838;2023-05-29T08:51:14;7.13;;;4.83;;
32292;SDS011;43233;48.608;8.838;2023-05-29T08:53:45;8.43;;;4.50;;
32292;SDS011;43233;48.608;8.838;2023-05-29T08:56:11;8.97;;;5.10;;
32292;SDS011;43233;48.608;8.838;2023-05-29T08:58:37;8.80;;;4.47;;
32292;SDS011;43233;48.608;8.838;2023-05-29T09:01:03;7.70;;;5.07;;
32292;SDS011;43233;48.608;8.838;2023-05-29T09:03:30;5.90;;;4.30;;
32292;SDS011;43233;48.608;8.838;2023-05-29T09:05:59;6.03;;;4.17;;
32292;SDS011;43233;48.608;8.838;2023-05-29T09:08:28;10.17;;;5.40;;
32292;SDS011;43233;48.608;8.838;2023-05-29T09:10:55;6.67;;;4.90;;
32292;SDS011;43233;48.608;8.838;2023-05-29T09:13:22;6.50;;;4.97;;
32292;SDS011;43233;48.608;8.838;2023-05-29T09:15:47;6.27;;;5.00;;
32292;SDS011;43233;48.608;8.838;2023-05-29T09:18:16;6.50;;;5.03;;
32292;SDS011;43233;48.608;8.838;2023-05-29T09:20:42;4.83;;;4.07;;
32292;SDS011;43233;48.608;8.838;2023-05-29T09:23:08;5.60;;;4.33;;
32292;SDS011;43233;48.608;8.838;2023-05-29T09:25:43;9.50;;;4.00;;
32292;SDS011;43233;48.608;8.838;2023-05-29T09:28:09;8.30;;;5.00;;
32292;SDS011;43233;48.608;8.838;2023-05-29T09:33:09;5.00;;;4.23;;
32292;SDS011;43233;48.608;8.838;2023-05-29T09:35:39;13.00;;;5.53;;
32292;SDS011;43233;48.608;8.838;2023-05-29T09:38:07;5.63;;;4.43;;
32292;SDS011;43233;48.608;8.838;2023-05-29T09:40:33;7.43;;;5.00;;
32292;SDS011;43233;48.608;8.838;2023-05-29T09:43:15;6.20;;;4.80;;
32292;SDS011;43233;48.608;8.838;2023-05-29T09:45:46;5.20;;;4.20;;
32292;SDS011;43233;48.608;8.838;2023-05-29T09:48:16;9.13;;;5.40;;
32292;SDS011;43233;48.608;8.838;2023-05-29T09:50:49;9.17;;;5.00;;
32292;SDS011;43233;48.608;8.838;2023-05-29T09:53:24;6.70;;;4.37;;
32292;SDS011;43233;48.608;8.838;2023-05-29T09:55:51;6.30;;;4.53;;
32292;SDS011;43233;48.608;8.838;2023-05-29T09:58:19;10.67;;;4.57;;
32292;SDS011;43233;48.608;8.838;2023-05-29T10:00:46;6.17;;;4.47;;
32292;SDS011;43233;48.608;8.838;2023-05-29T10:03:16;6.43;;;4.23;;
32292;SDS011;43233;48.608;8.838;2023-05-29T10:05:42;6.73;;;3.80;;
32292;SDS011;43233;48.608;8.838;2023-05-29T10:08:19;6.63;;;4.50;;
32292;SDS011;43233;48.608;8.838;2023-05-29T10:10:58;11.37;;;4.67;;
32292;SDS011;43233;48.608;8.838;2023-05-29T10:13:30;8.57;;;5.23;;
32292;SDS011;43233;48.608;8.838;2023-05-29T10:15:59;7.27;;;4.07;;
32292;SDS011;43233;48.608;8.838;2023-05-29T10:18:27;4.30;;;3.50;;
32292;SDS011;43233;48.608;8.838;2023-05-29T10:21:00;8.67;;;4.70;;
32292;SDS011;43233;48.608;8.838;2023-05-29T10:23:28;5.10;;;3.80;;
32292;SDS011;43233;48.608;8.838;2023-05-29T10:28:49;7.00;;;3.93;;
32292;SDS011;43233;48.608;8.838;2023-05-29T10:31:42;4.77;;;3.77;;
32292;SDS011;43233;48.608;8.838;2023-05-29T10:37:18;6.70;;;5.27;;
32292;SDS011;43233;48.608;8.838;2023-05-29T10:40:08;6.70;;;5.00;;
32292;SDS011;43233;48.608;8.838;2023-05-29T10:42:48;7.40;;;4.73;;
32292;SDS011;43233;48.608;8.838;2023-05-29T10:47:56;6.83;;;4.40;;
32292;SDS011;43233;48.608;8.838;2023-05-29T10:53:15;5.90;;;4.60;;
32292;SDS011;43233;48.608;8.838;2023-05-29T10:55:42;5.30;;;4.60;;
32292;SDS011;43233;48.608;8.838;2023-05-29T10:58:14;5.93;;;4.30;;
32292;SDS011;43233;48.608;8.838;2023-05-29T11:00:43;5.80;;;4.73;;
32292;SDS011;43233;48.608;8.838;2023-05-29T11:05:55;4.80;;;3.97;;
32292;SDS011;43233;48.608;8.838;2023-05-29T11:11:00;6.33;;;4.13;;
32292;SDS011;43233;48.608;8.838;2023-05-29T11:13:35;5.80;;;4.90;;
32292;SDS011;43233;48.608;8.838;2023-05-29T11:16:05;4.60;;;4.07;;
32292;SDS011;43233;48.608;8.838;2023-05-29T11:18:43;5.70;;;4.30;;
32292;SDS011;43233;48.608;8.838;2023-05-29T11:23:58;4.77;;;3.97;;
32292;SDS011;43233;48.608;8.838;2023-05-29T11:26:27;10.57;;;4.83;;
32292;SDS011;43233;48.608;8.838;2023-05-29T11:28:57;6.47;;;4.23;;
32292;SDS011;43233;48.608;8.838;2023-05-29T11:31:23;7.83;;;4.53;;
32292;SDS011;43233;48.608;8.838;2023-05-29T11:33:51;6.83;;;4.17;;
32292;SDS011;43233;48.608;8.838;2023-05-29T11:36:23;5.83;;;4.13;;
32292;SDS011;43233;48.608;8.838;2023-05-29T11:38:52;5.20;;;3.77;;
32292;SDS011;43233;48.608;8.838;2023-05-29T11:41:18;7.60;;;4.40;;
32292;SDS011;43233;48.608;8.838;2023-05-29T11:43:44;5.03;;;4.13;;
32292;SDS011;43233;48.608;8.838;2023-05-29T11:46:20;7.33;;;3.90;;
32292;SDS011;43233;48.608;8.838;2023-05-29T11:48:46;4.90;;;4.00;;
32292;SDS011;43233;48.608;8.838;2023-05-29T11:51:12;5.93;;;4.00;;
32292;SDS011;43233;48.608;8.838;2023-05-29T11:53:42;5.30;;;3.73;;
32292;SDS011;43233;48.608;8.838;2023-05-29T11:56:11;9.33;;;4.67;;
32292;SDS011;43233;48.608;8.838;2023-05-29T11:58:37;8.43;;;4.20;;
32292;SDS011;43233;48.608;8.838;2023-05-29T12:01:04;9.50;;;4.10;;
32292;SDS011;43233;48.608;8.838;2023-05-29T12:03:30;10.33;;;4.20;;
32292;SDS011;43233;48.608;8.838;2023-05-29T12:05:55;3.63;;;3.33;;
32292;SDS011;43233;48.608;8.838;2023-05-29T12:08:22;8.93;;;3.77;;
32292;SDS011;43233;48.608;8.838;2023-05-29T12:10:49;5.20;;;3.87;;
32292;SDS011;43233;48.608;8.838;2023-05-29T12:13:15;7.93;;;3.93;;
32292;SDS011;43233;48.608;8.838;2023-05-29T12:15:43;7.57;;;4.00;;
32292;SDS011;43233;48.608;8.838;2023-05-29T12:18:10;5.30;;;4.33;;
32292;SDS011;43233;48.608;8.838;2023-05-29T12:20:36;6.13;;;4.80;;
32292;SDS011;43233;48.608;8.838;2023-05-29T12:23:02;4.17;;;3.50;;
32292;SDS011;43233;48.608;8.838;2023-05-29T12:25:27;4.60;;;4.20;;
32292;SDS011;43233;48.608;8.838;2023-05-29T12:27:55;4.53;;;3.30;;
32292;SDS011;43233;48.608;8.838;2023-05-29T12:30:21;4.00;;;3.60;;
32292;SDS011;43233;48.608;8.838;2023-05-29T12:32:48;4.50;;;3.57;;
32292;SDS011;43233;48.608;8.838;2023-05-29T12:37:43;3.67;;;3.10;;
32292;SDS011;43233;48.608;8.838;2023-05-29T12:40:20;3.70;;;3.10;;
32292;SDS011;43233;48.608;8.838;2023-05-29T12:42:48;4.60;;;3.50;;
32292;SDS011;43233;48.608;8.838;2023-05-29T12:45:14;6.93;;;3.70;;
32292;SDS011;43233;48.608;8.838;2023-05-29T12:48:01;3.97;;;3.33;;
32292;SDS011;43233;48.608;8.838;2023-05-29T12:50:29;4.40;;;3.40;;
32292;SDS011;43233;48.608;8.838;2023-05-29T12:53:03;4.67;;;4.00;;
32292;SDS011;43233;48.608;8.838;2023-05-29T12:55:31;3.70;;;3.13;;
32292;SDS011;43233;48.608;8.838;2023-05-29T12:57:58;10.07;;;3.93;;
32292;SDS011;43233;48.608;8.838;2023-05-29T13:00:24;5.00;;;3.33;;
32292;SDS011;43233;48.608;8.838;2023-05-29T13:02:50;4.00;;;3.40;;
32292;SDS011;43233;48.608;8.838;2023-05-29T13:05:16;3.97;;;3.27;;
32292;SDS011;43233;48.608;8.838;2023-05-29T13:07:43;7.40;;;3.67;;
32292;SDS011;43233;48.608;8.838;2023-05-29T13:10:10;4.33;;;3.80;;
32292;SDS011;43233;48.608;8.838;2023-05-29T13:12:36;5.10;;;3.57;;
32292;SDS011;43233;48.608;8.838;2023-05-29T13:15:02;5.03;;;3.50;;
32292;SDS011;43233;48.608;8.838;2023-05-29T13:17:28;7.37;;;3.87;;
32292;SDS011;43233;48.608;8.838;2023-05-29T13:19:53;5.10;;;3.47;;
32292;SDS011;43233;48.608;8.838;2023-05-29T13:22:19;5.20;;;3.50;;
32292;SDS011;43233;48.608;8.838;2023-05-29T13:24:45;4.03;;;3.40;;
32292;SDS011;43233;48.608;8.838;2023-05-29T13:27:10;10.30;;;4.13;;
32292;SDS011;43233;48.608;8.838;2023-05-29T13:29:39;5.57;;;3.90;;
32292;SDS011;43233;48.608;8.838;2023-05-29T13:32:05;3.43;;;3.10;;
32292;SDS011;43233;48.608;8.838;2023-05-29T13:34:31;3.70;;;3.20;;
32292;SDS011;43233;48.608;8.838;2023-05-29T13:36:57;5.73;;;3.90;;
32292;SDS011;43233;48.608;8.838;2023-05-29T13:39:23;4.30;;;3.50;;
32292;SDS011;43233;48.608;8.838;2023-05-29T13:41:52;9.23;;;4.00;;
32292;SDS011;43233;48.608;8.838;2023-05-29T13:44:17;5.10;;;3.30;;
32292;SDS011;43233;48.608;8.838;2023-05-29T13:46:43;6.87;;;3.07;;
32292;SDS011;43233;48.608;8.838;2023-05-29T13:49:09;4.73;;;3.67;;
32292;SDS011;43233;48.608;8.838;2023-05-29T13:51:35;4.47;;;3.03;;
32292;SDS011;43233;48.608;8.838;2023-05-29T13:54:01;3.80;;;3.10;;
32292;SDS011;43233;48.608;8.838;2023-05-29T13:56:28;3.03;;;2.70;;
32292;SDS011;43233;48.608;8.838;2023-05-29T13:58:54;3.97;;;3.23;;
32292;SDS011;43233;48.608;8.838;2023-05-29T14:01:20;3.30;;;3.00;;
32292;SDS011;43233;48.608;8.838;2023-05-29T14:03:46;4.47;;;3.50;;
32292;SDS011;43233;48.608;8.838;2023-05-29T14:06:11;3.43;;;3.13;;
32292;SDS011;43233;48.608;8.838;2023-05-29T14:08:37;4.17;;;3.17;;
32292;SDS011;43233;48.608;8.838;2023-05-29T14:11:03;4.57;;;3.50;;
32292;SDS011;43233;48.608;8.838;2023-05-29T14:13:28;4.60;;;3.10;;
32292;SDS011;43233;48.608;8.838;2023-05-29T14:15:54;6.37;;;3.20;;
32292;SDS011;43233;48.608;8.838;2023-05-29T14:18:22;4.77;;;3.53;;
32292;SDS011;43233;48.608;8.838;2023-05-29T14:20:47;9.90;;;3.43;;
32292;SDS011;43233;48.608;8.838;2023-05-29T14:23:14;3.80;;;3.37;;
32292;SDS011;43233;48.608;8.838;2023-05-29T14:25:42;4.00;;;3.27;;
32292;SDS011;43233;48.608;8.838;2023-05-29T14:28:07;4.43;;;3.77;;
32292;SDS011;43233;48.608;8.838;2023-05-29T14:30:33;4.47;;;3.37;;
32292;SDS011;43233;48.608;8.838;2023-05-29T14:32:59;2.97;;;2.77;;
32292;SDS011;43233;48.608;8.838;2023-05-29T14:35:25;5.23;;;2.87;;
32292;SDS011;43233;48.608;8.838;2023-05-29T14:37:51;5.93;;;3.80;;
32292;SDS011;43233;48.608;8.838;2023-05-29T14:40:17;4.53;;;3.97;;
32292;SDS011;43233;48.608;8.838;2023-05-29T14:42:42;3.60;;;3.30;;
32292;SDS011;43233;48.608;8.838;2023-05-29T14:45:08;8.67;;;3.60;;
32292;SDS011;43233;48.608;8.838;2023-05-29T14:47:34;6.40;;;3.60;;
32292;SDS011;43233;48.608;8.838;2023-05-29T14:50:00;4.40;;;3.60;;
32292;SDS011;43233;48.608;8.838;2023-05-29T14:52:26;3.37;;;3.07;;
32292;SDS011;43233;48.608;8.838;2023-05-29T14:54:52;4.17;;;3.27;;
32292;SDS011;43233;48.608;8.838;2023-05-29T14:57:17;6.60;;;3.67;;
32292;SDS011;43233;48.608;8.838;2023-05-29T14:59:43;2.83;;;2.63;;
32292;SDS011;43233;48.608;8.838;2023-05-29T15:02:09;3.27;;;2.93;;
32292;SDS011;43233;48.608;8.838;2023-05-29T15:04:34;3.90;;;3.20;;
32292;SDS011;43233;48.608;8.838;2023-05-29T15:07:01;5.43;;;2.90;;
32292;SDS011;43233;48.608;8.838;2023-05-29T15:09:26;4.03;;;3.10;;
32292;SDS011;43233;48.608;8.838;2023-05-29T15:11:52;3.37;;;3.07;;
32292;SDS011;43233;48.608;8.838;2023-05-29T15:14:17;4.60;;;3.47;;
32292;SDS011;43233;48.608;8.838;2023-05-29T15:16:44;4.07;;;3.67;;
32292;SDS011;43233;48.608;8.838;2023-05-29T15:19:10;4.63;;;3.83;;